Terminal Aerodrome Forecast
Issued by NWS Mt. Holly, NJ

Home | Current Version | Previous Version | Text Only | Print | Product List | Glossary On
Versions: 1 2 3 4 5 6 7 8 9 10 11 12 13 14 15 16 17 18
000
FTAK31 PANC 272335
TAFABE
TAF
PABE 272335Z 2800/2824 07010KT P6SM -RA BKN025 OVC060
     FM280400 12007KT P6SM -RA SCT025 OVC050
     FM281200 15008KT P6SM BKN050 OVC080
     FM281500 13008KT P6SM -RA BKN035 OVC050=

USA.gov is the U.S. government's official web portal to all federal, state and local government web resources and services.